Armington, IL (61721)

12:03 AM CDT on September 30, 2016 (GMT -0500)
Minier | | Change Station

Elev 633 ft 40.43 °N, 89.31 °W | Updated 6 seconds ago

Clear
Clear
57.8 °F
Feels Like 57.8 °F
N
5.0
Wind Variable Wind from North

Today
High -- | Low -- °F
--% Chance of Precip.
Yesterday
High -- | Low -- °F
Precip. -- in
Pressure 30.16 in
Visibility 7.0 miles
Clouds Clear
Dew Point 55 °F
Humidity 93%
Rainfall 0.00 in
Snow Depth Not available.
6:53 AM 6:40 PM
Waning Crescent, 1% visible
METAR KAAA 300455Z AUTO 36005KT 7SM CLR 15/14 A3016 RMK AO2 T01450143
Pressure 30.16 in
Visibility 7.0 miles
Clouds Clear
Dew Point 55 °F
Humidity 93%
Rainfall 0.00 in
Snow Depth Not available.
6:53 AM 6:40 PM
Waning Crescent, 1% visible
METAR KAAA 300455Z AUTO 36005KT 7SM CLR 15/14 A3016 RMK AO2 T01450143

10-Day Weather Forecast

Almanac

Astronomy

Sep. 30, 2016 Rise Set
Actual Time
Civil Twilight
Nautical Twilight
Astronomical Twilight
Moon
Length of Visible Light
Length of Day
Tomorrow will be .
, % of the Moon is Illuminated

Today's Extremes

State Highs State Lows

Community

WunderPhotos

Upload Photos

1,942,665 photos uploaded!

WunderBlog® & News

Nearby

Air Quality

  Air Quality AQ Index Pollutant
Not available.

Snow Depth

Station Depth Elevation

Earthquake Activity

City Distance Mag. Time & Date
Minimum magnitude displayed is 2.5.

Coastal Water Temperatures

Place Temperature

Stations

Nearby Weather Stations

Station Location Temp. Windchill Dew Point Humidity Wind Precip. Elev Updated Type
                   

Watches & Warnings

There are currently no watches in effect.